Time;durP1;ratioP1;P1;durP2;ratioP2;P2;SDS_P1;SDS_P2;PMS_P1;PMS_P2;Temp;Humidity;BMP_temperature;BMP_pressure;BME280_temperature;BME280_humidity;BME280_pressure;Samples;Min_cycle;Max_cycle;Signal;HPM_P1;HPM_P2
2022/06/20 00:01:13;;;;;;;0.20;0.20;;;15.30;99.90;15.60;101254.00;;;;5035734;28;20178;-65
2022/06/20 00:03:52;;;;;;;0.20;0.20;;;15.40;99.90;16.10;101273.00;;;;5035770;28;20603;-65
2022/06/20 00:06:24;;;;;;;0.30;0.30;;;15.60;99.90;15.80;101328.00;;;;5034742;28;20220;-64
2022/06/20 00:09:00;;;;;;;0.20;0.20;;;15.70;99.90;15.60;101356.00;;;;5034980;28;20601;-64
2022/06/20 00:11:42;;;;;;;0.20;0.20;;;15.50;99.90;15.80;101372.00;;;;5035585;28;20208;-64
2022/06/20 00:14:19;;;;;;;0.20;0.20;;;15.40;99.90;15.80;101362.00;;;;5034277;28;20221;-64
2022/06/20 00:16:48;;;;;;;0.30;0.30;;;15.40;99.90;16.50;101361.00;;;;5034229;28;20178;-65
2022/06/20 00:19:15;;;;;;;0.20;0.20;;;15.90;99.90;16.70;101330.00;;;;5033553;28;20167;-66
2022/06/20 00:21:48;;;;;;;0.20;0.20;;;16.00;99.90;17.10;101328.00;;;;5034720;28;20532;-67
2022/06/20 00:24:14;;;;;;;0.23;0.23;;;16.30;99.90;15.80;101299.00;;;;5035172;28;20276;-65
2022/06/20 00:26:40;;;;;;;0.20;0.20;;;16.10;99.90;15.10;101292.00;;;;5033987;28;20269;-64
2022/06/20 00:29:13;;;;;;;0.20;0.20;;;15.50;99.90;15.00;101285.00;;;;5034331;28;20182;-65
2022/06/20 00:31:39;;;;;;;0.20;0.20;;;15.30;99.90;14.50;101243.00;;;;5017012;28;20702;-65
2022/06/20 00:34:13;;;;;;;0.27;0.27;;;15.00;99.90;14.60;101289.00;;;;5017620;28;20276;-64
2022/06/20 00:36:48;;;;;;;0.30;0.30;;;14.80;99.90;14.70;101279.00;;;;5033802;28;20698;-64
2022/06/20 00:39:28;;;;;;;0.30;0.30;;;14.80;99.90;14.90;101268.00;;;;5017319;28;20218;-65
2022/06/20 00:41:54;;;;;;;0.20;0.20;;;14.90;99.90;14.90;101291.00;;;;5033971;28;20180;-65
2022/06/20 00:45:04;;;;;;;0.20;0.20;;;15.00;99.90;14.80;101272.00;;;;5033936;28;20183;-65
2022/06/20 00:47:38;;;;;;;0.30;0.30;;;15.00;99.90;14.90;101256.00;;;;5033730;28;20689;-65
2022/06/20 00:50:32;;;;;;;0.27;0.27;;;15.00;99.90;14.50;101272.00;;;;5033876;28;20264;-65
2022/06/20 00:53:22;;;;;;;0.20;0.20;;;14.70;99.90;14.50;101265.00;;;;5033485;28;20294;-64
2022/06/20 00:56:16;;;;;;;0.20;0.20;;;14.70;99.90;14.40;101287.00;;;;5033552;28;20189;-64
2022/06/20 00:59:11;;;;;;;0.73;0.73;;;14.60;99.90;14.40;101294.00;;;;5033959;28;20174;-64
2022/06/20 01:01:43;;;;;;;0.30;0.30;;;14.60;99.90;14.50;101289.00;;;;5033144;28;20183;-64
2022/06/20 01:04:39;;;;;;;0.20;0.20;;;14.60;99.90;14.50;101271.00;;;;5033580;28;20177;-65
2022/06/20 01:07:28;;;;;;;0.30;0.30;;;14.70;99.90;14.60;101287.00;;;;5030536;28;20698;-64
2022/06/20 01:10:03;;;;;;;0.30;0.30;;;14.70;99.90;14.60;101300.00;;;;5033356;28;20536;-64
2022/06/20 01:12:50;;;;;;;0.20;0.20;;;14.80;99.90;14.70;101284.00;;;;5033080;28;20224;-64
2022/06/20 01:15:41;;;;;;;0.30;0.30;;;14.80;99.90;14.60;101277.00;;;;5033373;28;20171;-64
2022/06/20 01:18:21;;;;;;;2.00;0.63;;;14.80;99.90;14.50;101217.00;;;;5016946;28;20224;-64
2022/06/20 01:20:57;;;;;;;1.80;1.43;;;14.70;99.90;14.30;101235.00;;;;5016841;28;20181;-64
2022/06/20 01:24:07;;;;;;;0.57;0.57;;;14.70;99.90;14.40;101224.00;;;;5033204;28;20186;-64
2022/06/20 01:27:25;;;;;;;0.77;0.30;;;14.70;99.90;14.50;101232.00;;;;5034141;28;20190;-64
2022/06/20 01:29:54;;;;;;;0.23;0.23;;;14.80;99.90;14.50;101231.00;;;;5032957;28;20229;-64
2022/06/20 01:32:45;;;;;;;0.20;0.20;;;14.80;99.90;14.90;101230.00;;;;5032479;28;20237;-64
2022/06/20 01:38:16;;;;;;;0.30;0.30;;;14.80;99.90;14.30;101205.00;;;;5033875;28;20189;-64
2022/06/20 01:43:37;;;;;;;0.20;0.20;;;14.70;99.90;15.10;101211.00;;;;5032896;28;20223;-64
2022/06/20 01:46:31;;;;;;;0.30;0.30;;;14.90;99.90;14.70;101199.00;;;;5032399;28;20182;-64
2022/06/20 01:49:12;;;;;;;0.40;0.40;;;14.90;99.90;14.80;101202.00;;;;5049368;28;20595;-64
2022/06/20 01:52:22;;;;;;;0.30;0.30;;;14.80;99.90;15.50;101204.00;;;;5032692;28;20196;-64
2022/06/20 01:55:13;;;;;;;0.40;0.40;;;15.00;99.90;14.40;101165.00;;;;5032410;28;20665;-64
2022/06/20 01:57:54;;;;;;;0.37;0.37;;;14.90;99.90;14.10;101180.00;;;;5032928;28;20168;-64
2022/06/20 02:00:27;;;;;;;0.50;0.50;;;14.70;99.90;14.00;101188.00;;;;5049104;28;20577;-63
2022/06/20 02:03:09;;;;;;;1.13;0.40;;;14.50;99.90;14.50;101189.00;;;;5033450;28;20715;-65
2022/06/20 02:05:58;;;;;;;0.30;0.30;;;14.50;99.90;14.10;101188.00;;;;5032255;28;20181;-64
2022/06/20 02:08:24;;;;;;;0.40;0.40;;;14.50;99.90;14.30;101181.00;;;;5032327;28;20176;-64
2022/06/20 02:11:08;;;;;;;0.60;0.60;;;14.50;99.90;14.60;101150.00;;;;5033476;28;20595;-64
2022/06/20 02:13:48;;;;;;;0.50;0.50;;;14.60;99.90;14.60;101192.00;;;;5032188;28;20602;-64
2022/06/20 02:16:43;;;;;;;0.67;0.30;;;14.70;99.90;14.20;101175.00;;;;5032165;28;20183;-64
2022/06/20 02:19:29;;;;;;;0.30;0.30;;;14.60;99.90;14.50;101179.00;;;;5032202;28;20217;-64
2022/06/20 02:22:17;;;;;;;0.40;0.40;;;14.60;99.90;14.50;101168.00;;;;5032222;28;20178;-64
2022/06/20 02:25:16;;;;;;;0.20;0.20;;;14.60;99.90;14.40;101197.00;;;;5032324;28;20695;-63
2022/06/20 02:28:15;;;;;;;0.20;0.20;;;14.60;99.90;14.40;101195.00;;;;5032005;28;20184;-63
2022/06/20 02:30:41;;;;;;;0.30;0.30;;;14.60;99.90;14.20;101178.00;;;;5016309;28;20270;-64
2022/06/20 02:33:34;;;;;;;0.30;0.30;;;14.50;99.90;14.20;101203.00;;;;5031895;28;20572;-63
2022/06/20 02:36:25;;;;;;;0.30;0.30;;;14.40;99.90;14.40;101218.00;;;;5032361;28;20189;-63
2022/06/20 02:38:52;;;;;;;0.30;0.30;;;14.50;99.90;14.80;101210.00;;;;5028781;28;20288;-64
2022/06/20 02:41:55;;;;;;;0.30;0.30;;;14.70;99.90;14.90;101218.00;;;;5031998;28;20262;-64
2022/06/20 02:44:24;;;;;;;0.47;0.47;;;14.80;99.90;15.20;101232.00;;;;5030561;28;20199;-64
2022/06/20 02:47:08;;;;;;;0.30;0.30;;;15.00;99.90;15.30;101224.00;;;;5027620;28;20189;-64
2022/06/20 02:49:40;;;;;;;0.40;0.40;;;15.10;99.90;14.90;101220.00;;;;5031062;28;20277;-63
2022/06/20 02:52:24;;;;;;;0.40;0.40;;;14.90;99.90;15.50;101234.00;;;;5028772;28;20229;-63
2022/06/20 02:54:54;;;;;;;0.77;0.77;;;15.10;99.90;15.10;101229.00;;;;5031561;28;20560;-63
2022/06/20 02:57:49;;;;;;;0.50;0.40;;;15.10;99.90;14.70;101219.00;;;;5030335;28;20259;-64
2022/06/20 03:00:39;;;;;;;0.40;0.40;;;14.80;99.90;14.90;101182.00;;;;5022335;28;20212;-63
2022/06/20 03:03:23;;;;;;;0.30;0.30;;;14.70;99.90;14.70;101196.00;;;;5011711;28;20257;-63
2022/06/20 03:05:51;;;;;;;0.50;0.50;;;14.70;99.90;14.30;101232.00;;;;4995926;28;20282;-63
2022/06/20 03:08:18;;;;;;;11.50;0.93;;;14.50;99.90;14.50;101245.00;;;;5011904;28;20251;-63
2022/06/20 03:10:55;;;;;;;0.40;0.40;;;14.50;99.90;14.20;101244.00;;;;4996221;28;20208;-63
2022/06/20 03:13:51;;;;;;;1.40;0.47;;;14.30;99.90;13.90;101251.00;;;;5011624;28;20189;-63
2022/06/20 03:16:17;;;;;;;0.30;0.30;;;14.10;99.90;14.00;101250.00;;;;5012150;28;20188;-63
2022/06/20 03:18:51;;;;;;;0.40;0.40;;;14.20;99.90;14.50;101224.00;;;;5013819;28;20177;-63
2022/06/20 03:21:43;;;;;;;0.40;0.40;;;14.30;99.90;14.30;101245.00;;;;5015542;28;20227;-63
2022/06/20 03:24:30;;;;;;;0.30;0.30;;;14.40;99.90;14.40;101260.00;;;;4998474;28;20188;-63
2022/06/20 03:27:02;;;;;;;0.50;0.50;;;14.40;99.90;14.60;101267.00;;;;5015771;28;20182;-63
2022/06/20 03:29:38;;;;;;;0.30;0.30;;;14.40;99.90;14.30;101265.00;;;;5015890;28;20289;-63
2022/06/20 03:32:26;;;;;;;0.30;0.30;;;14.40;99.90;14.30;101267.00;;;;5015137;28;20739;-64
2022/06/20 03:34:55;;;;;;;1.30;0.80;;;14.40;99.90;13.90;101261.00;;;;5016513;28;20181;-64
2022/06/20 03:37:22;;;;;;;0.40;0.40;;;14.30;99.90;14.20;101231.00;;;;5015597;28;20174;-64
2022/06/20 03:40:10;;;;;;;0.40;0.40;;;14.30;99.90;14.20;101225.00;;;;5015170;28;20231;-64
2022/06/20 03:42:37;;;;;;;0.83;0.83;;;14.30;99.90;14.70;101265.00;;;;5016218;28;20324;-63
2022/06/20 03:45:08;;;;;;;0.80;0.80;;;14.50;99.90;14.50;101259.00;;;;5015351;28;20175;-64
2022/06/20 03:47:54;;;;;;;0.30;0.30;;;14.50;99.90;14.30;101271.00;;;;5015369;28;20509;-64
2022/06/20 03:54:08;;;;;;;4.03;0.83;;;14.40;99.90;14.60;101291.00;;;;5004927;28;20186;-63
2022/06/20 03:57:00;;;;;;;0.50;0.50;;;14.40;99.90;14.40;101311.00;;;;4998850;28;20189;-64
2022/06/20 04:00:14;;;;;;;0.30;0.30;;;14.50;99.90;14.40;101321.00;;;;5015015;28;20559;-64
2022/06/20 04:03:27;;;;;;;0.40;0.40;;;14.60;99.90;14.70;101318.00;;;;5014903;28;20185;-64
2022/06/20 04:06:41;;;;;;;0.50;0.50;;;14.70;99.90;14.50;101321.00;;;;5015285;28;20232;-64
2022/06/20 04:12:16;;;;;;;1.77;0.77;;;14.70;99.90;14.40;101330.00;;;;5022297;28;20309;-64
2022/06/20 04:14:59;;;;;;;0.40;0.40;;;14.70;99.90;14.40;101339.00;;;;5020670;28;20644;-64
2022/06/20 04:20:57;;;;;;;0.70;0.70;;;14.50;99.90;14.40;101328.00;;;;5021676;28;20248;-64
2022/06/20 04:23:47;;;;;;;0.80;0.80;;;14.60;99.90;14.30;101321.00;;;;5015799;28;20229;-64
2022/06/20 04:26:19;;;;;;;0.57;0.57;;;14.50;99.90;14.60;101312.00;;;;5015397;28;20185;-64
2022/06/20 04:29:16;;;;;;;0.30;0.30;;;14.60;99.90;14.50;101314.00;;;;5015532;28;20184;-64
2022/06/20 04:31:52;;;;;;;0.37;0.37;;;14.70;99.90;14.60;101324.00;;;;5015016;28;20381;-64
2022/06/20 04:34:30;;;;;;;0.43;0.43;;;14.70;99.90;15.00;101307.00;;;;5015496;28;20430;-64
2022/06/20 04:37:06;;;;;;;0.30;0.30;;;14.80;99.90;14.80;101317.00;;;;5015291;28;20584;-64
2022/06/20 04:39:54;;;;;;;0.77;0.40;;;14.90;99.90;15.00;101315.00;;;;5029753;28;20221;-64
2022/06/20 04:42:56;;;;;;;1.97;1.33;;;15.00;99.90;14.60;101275.00;;;;4997877;28;20549;-64
2022/06/20 04:46:12;;;;;;;1.37;1.27;;;14.90;99.90;14.30;101309.00;;;;5030412;28;20172;-64
2022/06/20 04:51:49;;;;;;;1.07;1.07;;;14.80;99.90;14.40;101303.00;;;;5027619;28;20275;-64
2022/06/20 04:54:41;;;;;;;0.33;0.27;;;14.70;99.90;15.00;101271.00;;;;5028418;28;20179;-64
2022/06/20 04:57:34;;;;;;;0.40;0.40;;;14.90;99.90;15.60;101270.00;;;;5030360;28;20179;-64
2022/06/20 05:00:37;;;;;;;3.10;0.80;;;15.20;99.90;14.90;101313.00;;;;5030201;28;20277;-64
2022/06/20 05:03:15;;;;;;;1.50;0.50;;;15.20;99.90;15.00;101326.00;;;;5030282;28;20529;-64
2022/06/20 05:06:01;;;;;;;0.30;0.30;;;15.10;99.90;15.30;101324.00;;;;5030162;28;20170;-64
2022/06/20 05:09:17;;;;;;;0.30;0.30;;;15.20;99.90;14.70;101332.00;;;;5013451;28;20178;-64
2022/06/20 05:12:33;;;;;;;0.30;0.30;;;15.00;99.90;15.20;101343.00;;;;5014582;28;20289;-64
2022/06/20 05:15:46;;;;;;;0.60;0.40;;;15.10;99.90;14.80;101328.00;;;;5014930;28;20204;-64
2022/06/20 05:18:39;;;;;;;0.27;0.27;;;15.10;99.90;15.00;101337.00;;;;5011647;28;20225;-64
2022/06/20 05:21:39;;;;;;;0.30;0.30;;;15.00;99.90;14.70;101333.00;;;;5029953;28;20184;-64
2022/06/20 05:24:36;;;;;;;0.93;0.40;;;15.10;99.90;14.70;101334.00;;;;5013071;28;20180;-64
2022/06/20 05:27:26;;;;;;;0.30;0.30;;;15.00;99.90;15.10;101343.00;;;;5008107;28;20209;-64
2022/06/20 05:30:04;;;;;;;0.40;0.40;;;15.10;99.90;15.40;101335.00;;;;5029801;28;20584;-64
2022/06/20 05:32:43;;;;;;;0.30;0.30;;;15.20;99.90;15.20;101342.00;;;;5029323;28;20207;-64
2022/06/20 05:35:46;;;;;;;0.30;0.30;;;15.30;99.90;14.90;101332.00;;;;5029681;28;20167;-64
2022/06/20 05:38:34;;;;;;;0.20;0.20;;;15.20;99.90;15.00;101343.00;;;;5028400;28;20194;-64
2022/06/20 05:41:17;;;;;;;0.20;0.20;;;15.20;99.90;15.60;101342.00;;;;5028824;28;20180;-64
2022/06/20 05:43:51;;;;;;;0.20;0.20;;;15.40;99.90;15.90;101342.00;;;;5029729;28;20192;-64
2022/06/20 05:46:39;;;;;;;0.40;0.40;;;15.80;99.90;15.70;101335.00;;;;5029627;28;20191;-64
2022/06/20 05:49:18;;;;;;;0.20;0.20;;;15.80;99.90;16.00;101306.00;;;;5029321;28;20203;-65
2022/06/20 05:51:48;;;;;;;1.13;1.07;;;16.00;99.90;15.50;101346.00;;;;5028935;28;20203;-65
2022/06/20 05:54:37;;;;;;;0.30;0.30;;;15.80;99.90;16.20;101341.00;;;;5028923;28;20279;-65
2022/06/20 05:57:41;;;;;;;0.73;0.73;;;16.10;99.90;15.40;101344.00;;;;5012928;28;20177;-65
2022/06/20 06:00:22;;;;;;;0.23;0.23;;;15.90;99.90;15.90;101347.00;;;;5028893;28;20206;-65
2022/06/20 06:03:00;;;;;;;0.20;0.20;;;16.00;99.90;15.60;101359.00;;;;5013705;28;20196;-65
2022/06/20 06:05:35;;;;;;;0.57;0.40;;;16.00;99.90;16.30;101358.00;;;;5028780;28;20188;-65
2022/06/20 06:08:19;;;;;;;0.20;0.20;;;16.30;99.90;16.60;101362.00;;;;5014105;28;20177;-65
2022/06/20 06:11:23;;;;;;;0.83;0.47;;;16.60;99.90;16.20;101317.00;;;;5013745;28;20234;-65
2022/06/20 06:14:14;;;;;;;0.67;0.30;;;16.70;99.90;16.70;101316.00;;;;4991955;28;20184;-65
2022/06/20 06:16:50;;;;;;;1.20;0.83;;;16.80;99.90;17.00;101346.00;;;;5028985;28;20175;-64
2022/06/20 06:19:51;;;;;;;0.90;0.77;;;17.10;99.90;17.40;101317.00;;;;5028969;28;20185;-64
2022/06/20 06:22:37;;;;;;;0.37;0.37;;;17.50;99.90;17.40;101362.00;;;;5029135;28;20184;-65
2022/06/20 06:25:19;;;;;;;0.40;0.40;;;17.60;99.90;17.10;101369.00;;;;5028914;28;20191;-65
2022/06/20 06:27:56;;;;;;;0.13;0.13;;;17.40;99.90;16.70;101359.00;;;;5013467;28;20180;-64
2022/06/20 06:30:48;;;;;;;0.30;0.30;;;17.10;99.90;16.50;101359.00;;;;5028824;28;20619;-64
2022/06/20 06:33:57;;;;;;;0.10;0.10;;;17.00;99.90;16.70;101335.00;;;;5028712;28;20246;-65
2022/06/20 06:36:48;;;;;;;0.63;0.60;;;17.00;99.90;16.90;101376.00;;;;4996180;28;20598;-65
2022/06/20 06:39:46;;;;;;;0.20;0.20;;;17.00;99.90;17.00;101377.00;;;;5028063;28;20180;-65
2022/06/20 06:42:47;;;;;;;0.60;0.60;;;17.30;99.90;17.30;101383.00;;;;4996342;28;20570;-65
2022/06/20 06:45:47;;;;;;;2.27;0.47;;;17.30;99.90;17.70;101382.00;;;;5013660;28;20213;-66
2022/06/20 06:48:22;;;;;;;0.20;0.20;;;17.80;99.90;18.10;101394.00;;;;4992383;28;20621;-64
2022/06/20 06:51:13;;;;;;;2.95;0.77;;;18.10;99.90;18.40;101386.00;;;;5013173;28;20182;-64
2022/06/20 06:53:48;;;;;;;1.67;0.80;;;18.60;99.90;19.70;101401.00;;;;5013054;28;20551;-65
2022/06/20 06:57:15;;;;;;;0.20;0.20;;;19.40;99.90;19.50;101439.00;;;;5002282;28;20269;-65
2022/06/20 07:00:05;;;;;;;0.28;0.28;;;19.70;99.90;21.10;101464.00;;;;5010207;28;20199;-65
2022/06/20 07:02:58;;;;;;;0.30;0.30;;;20.50;99.90;20.60;101469.00;;;;5021660;28;20265;-65
2022/06/20 07:05:40;;;;;;;0.43;0.43;;;20.70;99.90;20.30;101477.00;;;;5015791;28;20627;-65
2022/06/20 07:09:08;;;;;;;0.45;0.40;;;20.50;99.90;21.40;101497.00;;;;5016018;28;20299;-63
2022/06/20 07:12:03;;;;;;;1.35;0.65;;;20.50;99.90;22.20;101531.00;;;;5043393;28;20628;-64
2022/06/20 07:14:50;;;;;;;0.10;0.10;;;21.60;99.90;22.60;101558.00;;;;5023205;28;20262;-64
2022/06/20 07:17:28;;;;;;;0.65;0.50;;;22.30;99.90;22.90;101569.00;;;;5032177;28;20657;-64
2022/06/20 07:20:00;;;;;;;0.60;0.50;;;22.30;99.90;20.40;101562.00;;;;5031843;28;20411;-64
2022/06/20 07:22:30;;;;;;;0.17;0.17;;;21.10;99.90;21.30;101569.00;;;;5031071;28;20197;-64
2022/06/20 07:25:30;;;;;;;0.17;0.17;;;21.00;99.90;21.40;101553.00;;;;5034975;28;20608;-64
2022/06/20 07:28:34;;;;;;;0.40;0.40;;;21.40;99.90;21.90;101584.00;;;;5035345;28;20186;-64
2022/06/20 07:31:39;;;;;;;0.32;0.32;;;21.30;99.90;22.20;101604.00;;;;5033523;28;20190;-64
2022/06/20 07:34:31;;;;;;;0.20;0.20;;;22.10;99.90;21.10;101592.00;;;;5024644;28;20684;-64
2022/06/20 07:37:32;;;;;;;0.20;0.20;;;21.30;99.90;20.30;101586.00;;;;5034397;28;20194;-64
2022/06/20 07:40:04;;;;;;;0.10;0.10;;;20.80;99.90;22.50;101606.00;;;;5034735;28;20182;-64
2022/06/20 07:43:21;;;;;;;0.20;0.20;;;21.50;99.90;24.00;101637.00;;;;5035927;28;20585;-64
2022/06/20 07:46:01;;;;;;;2.47;0.47;;;22.90;99.90;25.00;101601.00;;;;5023593;28;20202;-63
2022/06/20 07:48:38;;;;;;;0.70;0.70;;;23.90;99.90;24.50;101633.00;;;;5034769;28;20206;-64
2022/06/20 07:51:13;;;;;;;0.95;0.30;;;24.30;99.90;24.60;101636.00;;;;5035978;28;20186;-64
2022/06/20 07:53:47;;;;;;;0.57;0.57;;;24.20;99.90;21.30;101605.00;;;;5036145;28;20580;-63
2022/06/20 07:57:13;;;;;;;0.30;0.25;;;22.10;99.90;21.20;101626.00;;;;5035713;28;20248;-63
2022/06/20 08:00:10;;;;;;;0.20;0.20;;;21.10;99.90;20.60;101599.00;;;;5019141;28;20183;-64
2022/06/20 08:02:47;;;;;;;0.40;0.40;;;20.50;99.90;19.90;101589.00;;;;5016183;28;20186;-64
2022/06/20 08:05:21;;;;;;;0.20;0.20;;;19.70;99.90;18.80;101563.00;;;;5003248;28;20280;-64
2022/06/20 08:08:49;;;;;;;0.20;0.20;;;19.00;99.90;18.90;101554.00;;;;5023161;28;20205;-64
2022/06/20 08:11:41;;;;;;;0.53;0.53;;;18.70;99.90;17.40;101504.00;;;;5001750;28;20205;-64
2022/06/20 08:14:53;;;;;;;1.50;0.50;;;17.90;99.90;19.40;101523.00;;;;5008283;28;20191;-66
2022/06/20 08:17:22;;;;;;;0.20;0.20;;;18.50;99.90;19.30;101563.00;;;;5007768;28;20710;-65
2022/06/20 08:19:53;;;;;;;0.20;0.20;;;19.20;99.90;18.70;101548.00;;;;5030987;28;20188;-65
2022/06/20 08:23:00;;;;;;;5.13;1.55;;;18.90;99.90;20.10;101583.00;;;;5024634;28;20214;-64
2022/06/20 08:25:52;;;;;;;0.47;0.47;;;19.70;99.90;20.70;101595.00;;;;4995241;28;20716;-64
2022/06/20 08:28:30;;;;;;;0.65;0.65;;;20.40;99.90;20.20;101596.00;;;;5031538;28;20246;-64
2022/06/20 08:31:27;;;;;;;0.10;0.10;;;20.40;99.90;21.80;101612.00;;;;5016877;28;20178;-64
2022/06/20 08:34:00;;;;;;;0.30;0.30;;;21.10;99.90;21.60;101618.00;;;;5033293;28;20198;-64
2022/06/20 08:36:38;;;;;;;0.20;0.20;;;21.40;99.90;22.10;101631.00;;;;5033841;28;20174;-64
2022/06/20 08:39:40;;;;;;;0.10;0.10;;;21.50;99.90;22.10;101637.00;;;;5033210;28;20224;-64
2022/06/20 08:42:52;;;;;;;0.25;0.25;;;22.10;99.90;24.00;101651.00;;;;5031884;28;20621;-64
2022/06/20 08:45:45;;;;;;;0.95;0.40;;;23.00;99.90;23.20;101630.00;;;;5033872;28;20185;-64
2022/06/20 08:48:34;;;;;;;1.55;0.68;;;23.60;99.90;21.70;101658.00;;;;5033064;28;20175;-64
2022/06/20 08:51:35;;;;;;;0.20;0.20;;;22.80;99.90;24.30;101660.00;;;;5021836;28;20191;-64
2022/06/20 08:54:37;;;;;;;0.10;0.10;;;23.10;99.90;26.10;101663.00;;;;5014922;28;20197;-65
2022/06/20 08:57:15;;;;;;;0.85;0.38;;;24.80;99.90;23.40;101636.00;;;;5025763;28;20544;-64
2022/06/20 09:00:03;;;;;;;0.75;0.30;;;24.20;99.90;23.00;101664.00;;;;5012887;28;20547;-66
2022/06/20 09:03:17;;;;;;;0.20;0.20;;;23.20;99.90;22.40;101668.00;;;;5014072;28;20182;-67
2022/06/20 09:06:24;;;;;;;0.32;0.32;;;22.60;99.90;23.80;101676.00;;;;5011464;28;20710;-67
2022/06/20 09:09:21;;;;;;;0.28;0.28;;;22.80;99.90;23.80;101680.00;;;;5001502;28;20204;-67
2022/06/20 09:12:18;;;;;;;0.38;0.38;;;23.60;99.90;23.10;101673.00;;;;5025674;28;20242;-67
2022/06/20 09:15:20;;;;;;;0.20;0.20;;;22.90;99.90;24.00;101674.00;;;;5026305;28;20194;-67
2022/06/20 09:17:57;;;;;;;0.10;0.10;;;23.30;99.90;23.80;101682.00;;;;5032682;28;20218;-67
2022/06/20 09:20:48;;;;;;;0.60;0.60;;;23.60;99.90;22.50;101694.00;;;;5001414;28;20190;-73
2022/06/20 09:24:00;;;;;;;0.30;0.30;;;23.40;99.90;22.80;101681.00;;;;5001081;28;20281;-69
2022/06/20 09:27:14;;;;;;;0.52;0.45;;;22.50;99.90;24.30;101682.00;;;;5033331;28;20276;-68
2022/06/20 09:30:08;;;;;;;0.10;0.10;;;23.30;99.90;23.10;101693.00;;;;5024860;28;20190;-68
2022/06/20 09:33:17;;;;;;;0.17;0.17;;;23.40;99.90;22.20;101693.00;;;;5044999;28;20207;-70
2022/06/20 09:36:07;;;;;;;1.58;0.85;;;22.70;99.90;21.00;101691.00;;;;5002250;28;20206;-70
2022/06/20 09:39:06;;;;;;;0.30;0.30;;;21.60;99.90;21.90;101698.00;;;;5013350;28;20260;-70
2022/06/20 09:45:37;;;;;;;0.30;0.30;;;22.50;99.90;21.80;101690.00;;;;5028520;28;20191;-70
2022/06/20 09:48:18;;;;;;;0.20;0.20;;;21.80;99.90;22.80;101694.00;;;;5021282;28;20614;-70
2022/06/20 09:51:03;;;;;;;0.45;0.40;;;22.50;99.90;23.30;101672.00;;;;5026954;28;20190;-68
2022/06/20 09:54:23;;;;;;;0.93;0.93;;;22.80;99.90;24.70;101690.00;;;;5029394;28;20223;-70
2022/06/20 09:57:27;;;;;;;0.10;0.10;;;23.80;99.90;24.70;101698.00;;;;5005442;28;20278;-70
2022/06/20 10:00:37;;;;;;;0.10;0.10;;;24.00;99.90;23.70;101708.00;;;;5016757;28;20269;-70
2022/06/20 10:03:19;;;;;;;0.28;0.28;;;23.30;99.90;24.60;101708.00;;;;5000817;28;20207;-70
2022/06/20 10:06:11;;;;;;;0.50;0.50;;;23.60;99.90;23.20;101717.00;;;;5012198;28;20192;-70
2022/06/20 10:09:30;;;;;;;0.40;0.40;;;23.60;99.90;23.20;101726.00;;;;5002318;28;20195;-67
2022/06/20 10:12:26;;;;;;;0.10;0.10;;;22.90;99.90;25.90;101696.00;;;;5013466;28;20214;-71
2022/06/20 10:15:30;;;;;;;1.02;0.95;;;24.40;99.90;26.90;101707.00;;;;5024218;28;20228;-69
2022/06/20 10:18:21;;;;;;;0.20;0.20;;;26.10;99.90;25.70;101719.00;;;;5003545;28;20225;-69
2022/06/20 10:33:38;;;;;;;0.73;0.30;;;22.00;99.90;22.70;101753.00;;;;5070596;28;21208;-69
2022/06/20 10:36:37;;;;;;;0.28;0.28;;;22.20;99.90;23.30;101750.00;;;;5049340;28;20565;-70
2022/06/20 10:39:27;;;;;;;0.82;0.82;;;22.60;99.90;24.60;101759.00;;;;5035050;28;20549;-69
2022/06/20 10:42:49;;;;;;;0.50;0.38;;;23.70;99.90;25.10;101748.00;;;;5030213;28;20595;-70
2022/06/20 10:45:44;;;;;;;0.40;0.40;;;24.40;99.90;25.00;101751.00;;;;4990916;28;20275;-70
2022/06/20 10:48:52;;;;;;;1.00;0.75;;;24.60;99.90;25.80;101753.00;;;;5008246;28;20178;-69
2022/06/20 10:51:54;;;;;;;0.13;0.13;;;24.80;99.90;24.40;101752.00;;;;4990674;28;20801;-70
2022/06/20 10:54:44;;;;;;;0.70;0.70;;;24.50;99.90;23.40;101758.00;;;;5008418;28;20662;-70
2022/06/20 10:57:46;;;;;;;0.20;0.20;;;24.10;99.90;22.70;101769.00;;;;5008248;28;20639;-69
2022/06/20 11:00:55;;;;;;;0.25;0.25;;;22.90;99.90;23.10;101764.00;;;;5008430;28;20285;-69
2022/06/20 11:03:50;;;;;;;3.00;0.25;;;22.60;99.90;23.90;101752.00;;;;4992203;28;20199;-69
2022/06/20 11:06:46;;;;;;;0.30;0.30;;;23.40;99.90;26.20;101744.00;;;;5008416;28;20196;-71
2022/06/20 11:09:52;;;;;;;0.70;0.63;;;25.00;99.80;27.20;101722.00;;;;5008224;28;20186;-71
2022/06/20 11:12:42;;;;;;;0.10;0.10;;;26.40;97.90;27.10;101682.00;;;;4997199;28;20221;-71
2022/06/20 11:18:21;;;;;;;0.20;0.20;;;26.50;97.60;26.50;101728.00;;;;5013104;28;20642;-71
2022/06/20 11:21:34;;;;;;;0.30;0.30;;;25.90;97.70;25.80;101720.00;;;;5029913;28;20179;-71
2022/06/20 11:27:33;;;;;;;0.30;0.30;;;26.50;96.30;24.10;101741.00;;;;5021453;28;20187;-71
2022/06/20 11:30:24;;;;;;;0.40;0.40;;;25.40;96.80;23.00;101758.00;;;;5029997;28;20183;-68
2022/06/20 11:33:22;;;;;;;0.80;0.80;;;23.70;98.90;25.20;101756.00;;;;5011880;28;20218;-68
2022/06/20 11:36:54;;;;;;;1.48;1.38;;;24.20;99.90;25.40;101748.00;;;;5029906;28;20237;-70
2022/06/20 11:39:59;;;;;;;0.10;0.10;;;24.90;99.50;25.20;101743.00;;;;5007919;28;20190;-71
2022/06/20 11:42:45;;;;;;;0.25;0.25;;;24.80;99.80;24.10;101739.00;;;;5008566;28;20190;-69
2022/06/20 11:45:50;;;;;;;0.80;0.80;;;24.80;98.40;25.80;101713.00;;;;5003979;28;20666;-76
2022/06/20 11:49:13;;;;;;;0.30;0.30;;;25.30;98.50;24.40;101721.00;;;;4995941;28;20198;-67
2022/06/20 11:52:11;;;;;;;0.10;0.10;;;24.60;98.60;23.00;101756.00;;;;5007627;28;20305;-68
2022/06/20 11:55:38;;;;;;;0.38;0.38;;;24.30;98.60;24.40;101751.00;;;;5035399;28;20590;-69
2022/06/20 11:58:29;;;;;;;0.68;0.50;;;23.70;99.90;24.60;101744.00;;;;5034836;28;20193;-70
2022/06/20 12:01:25;;;;;;;0.65;0.38;;;24.70;99.90;24.50;101755.00;;;;5033643;28;20183;-68
2022/06/20 12:04:19;;;;;;;0.10;0.10;;;24.60;99.50;25.90;101734.00;;;;5032971;28;20187;-67
2022/06/20 12:06:59;;;;;;;0.15;0.15;;;24.90;99.20;25.70;101734.00;;;;5008694;28;20192;-67
2022/06/20 12:09:54;;;;;;;0.20;0.20;;;25.30;98.50;23.50;101747.00;;;;5015310;28;20260;-68
2022/06/20 12:12:56;;;;;;;0.10;0.10;;;23.80;99.00;23.30;101754.00;;;;5020856;28;20230;-70
2022/06/20 12:16:10;;;;;;;0.38;0.38;;;23.10;99.90;22.50;101763.00;;;;5028708;28;20613;-70
2022/06/20 12:24:51;;;;;;;1.20;0.65;;;23.60;99.90;23.40;101765.00;;;;5026185;28;20716;-68
2022/06/20 12:27:27;;;;;;;0.77;0.77;;;23.30;99.90;23.70;101765.00;;;;5031767;28;20194;-69
2022/06/20 12:29:55;;;;;;;0.10;0.10;;;23.20;99.90;23.60;101747.00;;;;5014727;28;20194;-69
2022/06/20 12:32:58;;;;;;;2.67;0.77;;;23.20;99.90;23.70;101761.00;;;;4998615;28;20221;-70
2022/06/20 12:35:49;;;;;;;2.05;1.40;;;23.10;99.90;23.00;101767.00;;;;4993195;28;20244;-69
2022/06/20 12:39:02;;;;;;;0.20;0.20;;;22.80;99.90;21.90;101765.00;;;;5049599;28;20190;-71
2022/06/20 12:41:38;;;;;;;0.40;0.40;;;22.10;99.90;21.30;101770.00;;;;5010469;28;20198;-69
2022/06/20 12:45:24;;;;;;;0.85;0.75;;;21.20;99.90;21.80;101746.00;;;;5029431;28;20186;-68
2022/06/20 12:48:33;;;;;;;0.20;0.20;;;21.30;99.90;22.60;101759.00;;;;5018837;28;20658;-66
2022/06/20 12:51:27;;;;;;;0.85;0.77;;;21.50;99.90;22.30;101771.00;;;;5017786;28;20211;-66
2022/06/20 12:54:30;;;;;;;0.22;0.22;;;21.90;99.90;22.00;101768.00;;;;5020520;28;20205;-68
2022/06/20 12:57:21;;;;;;;0.40;0.40;;;21.40;99.90;22.80;101783.00;;;;5027256;28;20205;-68
2022/06/20 13:00:29;;;;;;;0.30;0.30;;;21.60;99.90;23.50;101768.00;;;;5042454;28;20228;-67
2022/06/20 13:03:22;;;;;;;0.90;0.57;;;22.40;99.90;23.80;101758.00;;;;5038958;28;20200;-67
2022/06/20 13:06:19;;;;;;;0.20;0.20;;;22.80;99.90;24.40;101775.00;;;;5042161;28;20252;-67
2022/06/20 13:09:34;;;;;;;0.10;0.10;;;23.20;99.90;23.80;101773.00;;;;5041531;28;20185;-67
2022/06/20 13:12:53;;;;;;;0.43;0.43;;;23.00;99.90;23.30;101774.00;;;;5039999;28;20579;-67
2022/06/20 13:15:58;;;;;;;0.55;0.55;;;22.80;99.90;23.20;101769.00;;;;5039255;28;20193;-67